Time;durP1;ratioP1;P1;durP2;ratioP2;P2;SDS_P1;SDS_P2;PMS_P1;PMS_P2;Temp;Humidity;BMP_temperature;BMP_pressure;BME280_temperature;BME280_humidity;BME280_pressure;Samples;Min_cycle;Max_cycle;Signal;HPM_P1;HPM_P2
2023/06/16 00:09:57;;;;;;;2.10;1.90;;;;;;;20.43;68.50;101636.06;20959765;28;20135;-72
2023/06/16 00:19:59;;;;;;;2.47;2.28;;;;;;;20.40;66.59;101637.19;20968231;28;20126;-72
2023/06/16 00:30:00;;;;;;;2.22;2.03;;;;;;;20.37;61.40;101634.75;20968542;28;20056;-72
2023/06/16 00:40:04;;;;;;;2.30;2.10;;;;;;;20.34;60.64;101634.16;20964709;28;20049;-72
2023/06/16 00:50:07;;;;;;;2.70;2.00;;;;;;;20.32;60.94;101628.88;20987116;28;20049;-72
2023/06/16 01:00:11;;;;;;;2.40;2.00;;;;;;;20.32;60.46;101626.16;20990175;28;20080;-72
2023/06/16 01:10:18;;;;;;;3.17;2.20;;;;;;;20.30;60.49;101625.44;20965623;28;20488;-72
2023/06/16 01:20:23;;;;;;;2.22;2.03;;;;;;;20.30;62.45;101617.34;20931005;28;20051;-72
2023/06/16 01:30:28;;;;;;;2.70;2.13;;;;;;;20.28;62.33;101616.63;20977443;28;20079;-72
2023/06/16 01:40:32;;;;;;;2.45;1.98;;;;;;;20.26;61.75;101613.19;20942650;28;20032;-72
2023/06/16 01:50:34;;;;;;;2.03;1.85;;;;;;;20.24;62.80;101598.97;20958165;28;20040;-72
2023/06/16 02:00:40;;;;;;;2.03;1.83;;;;;;;20.25;62.70;101603.38;20962295;28;20040;-72
2023/06/16 02:10:42;;;;;;;2.17;1.98;;;;;;;20.24;64.84;101594.44;20955810;28;20073;-72
2023/06/16 02:20:44;;;;;;;2.25;1.90;;;;;;;20.22;64.50;101591.00;20948326;28;20467;-72
2023/06/16 02:30:46;;;;;;;2.13;1.92;;;;;;;20.21;63.80;101610.91;20979192;28;20048;-72
2023/06/16 02:40:48;;;;;;;2.25;2.00;;;;;;;20.21;64.04;101596.53;20964354;28;20044;-72
2023/06/16 02:50:51;;;;;;;1.95;1.83;;;;;;;20.20;64.28;101602.94;20987756;28;20056;-72
2023/06/16 03:00:53;;;;;;;2.80;1.95;;;;;;;20.18;64.02;101602.22;20989528;28;20120;-72
2023/06/16 03:11:11;;;;;;;2.63;2.00;;;;;;;20.17;65.33;101590.56;20942971;28;20072;-72
2023/06/16 03:21:25;;;;;;;2.42;1.90;;;;;;;20.16;64.35;101601.47;20944966;28;20048;-72
2023/06/16 03:31:27;;;;;;;2.22;1.85;;;;;;;20.14;64.47;101594.38;20952626;28;20044;-72
2023/06/16 03:41:30;;;;;;;2.30;1.77;;;;;;;20.13;64.37;101591.81;20945056;28;20059;-72
2023/06/16 03:51:33;;;;;;;2.13;1.92;;;;;;;20.07;64.33;101587.78;21010454;28;20051;-72
2023/06/16 04:01:37;;;;;;;4.03;2.03;;;;;;;20.11;64.27;101594.63;21006820;28;20040;-72
2023/06/16 04:11:41;;;;;;;2.00;1.80;;;;;;;20.11;63.52;101594.63;20958084;28;20044;-72
2023/06/16 04:21:45;;;;;;;3.10;2.40;;;;;;;20.11;64.86;101591.09;20976523;28;20082;-72
2023/06/16 04:31:50;;;;;;;2.23;2.00;;;;;;;20.10;65.18;101576.72;20957967;28;20047;-72
2023/06/16 04:41:53;;;;;;;2.22;2.00;;;;;;;20.08;65.08;101581.38;20924984;28;20334;-72
2023/06/16 04:51:57;;;;;;;2.72;2.00;;;;;;;20.09;66.26;101575.00;20929529;28;20106;-72
2023/06/16 05:02:00;;;;;;;2.45;2.20;;;;;;;20.09;66.16;101563.31;20936114;28;20060;-72
2023/06/16 05:12:02;;;;;;;2.45;2.25;;;;;;;20.02;67.19;101562.13;20930075;28;20136;-72
2023/06/16 05:22:04;;;;;;;2.90;2.10;;;;;;;20.09;68.62;101575.00;20944660;28;20564;-72
2023/06/16 05:32:07;;;;;;;2.40;2.10;;;;;;;20.09;68.17;101580.41;20915602;28;20075;-72
2023/06/16 05:42:10;;;;;;;2.55;2.35;;;;;;;20.09;69.23;101577.69;20915273;28;20097;-72
2023/06/16 05:52:12;;;;;;;3.90;2.47;;;;;;;20.09;67.58;101580.41;20921901;28;20064;-71
2023/06/16 06:02:17;;;;;;;3.17;2.28;;;;;;;20.01;67.29;101572.13;20934666;28;20106;-72
2023/06/16 06:12:19;;;;;;;3.67;2.15;;;;;;;20.09;67.94;101584.94;20936882;28;20139;-73
2023/06/16 06:22:21;;;;;;;2.95;2.42;;;;;;;20.09;69.35;101596.63;20941732;28;20114;-73
2023/06/16 06:32:22;;;;;;;3.10;2.30;;;;;;;20.12;69.85;101592.81;20941630;28;20128;-73
2023/06/16 06:42:26;;;;;;;3.00;2.33;;;;;;;20.16;70.61;101601.47;20916562;28;20036;-73
2023/06/16 06:52:30;;;;;;;4.95;2.90;;;;;;;20.18;72.11;101597.66;20922385;28;20588;-74
2023/06/16 07:02:32;;;;;;;3.92;2.78;;;;;;;20.19;73.03;101595.81;20943678;28;20049;-73
2023/06/16 07:12:33;;;;;;;3.60;3.30;;;;;;;20.23;76.21;101597.25;20930271;28;20045;-74
2023/06/16 07:22:35;;;;;;;5.80;3.40;;;;;;;20.21;73.21;101599.22;20935053;28;20072;-73
2023/06/16 07:32:39;;;;;;;4.22;3.60;;;;;;;20.22;72.61;101599.09;20983091;28;20052;-73
2023/06/16 07:42:44;;;;;;;3.53;3.00;;;;;;;20.26;74.39;101602.38;20992382;28;20060;-73
2023/06/16 07:52:45;;;;;;;;;;;;;;;20.27;74.16;101593.28;21065760;28;20058;-73
2023/06/16 08:02:47;;;;;;;4.03;2.90;;;;;;;20.28;72.79;101598.56;21065625;28;19920;-74
2023/06/16 08:12:52;;;;;;;3.55;3.25;;;;;;;20.32;75.57;101585.63;21064157;28;20044;-73
2023/06/16 08:22:53;;;;;;;3.53;3.13;;;;;;;20.46;77.67;101588.97;21064279;28;20127;-73
2023/06/16 08:32:55;;;;;;;3.70;3.40;;;;;;;20.54;77.56;101589.13;21052988;28;20079;-73
2023/06/16 08:42:58;;;;;;;3.65;3.25;;;;;;;20.53;77.13;101574.72;21053691;28;20457;-73
2023/06/16 08:53:01;;;;;;;3.05;2.85;;;;;;;20.64;76.87;101581.88;21077257;28;20048;-73
2023/06/16 09:03:05;;;;;;;3.72;3.42;;;;;;;20.68;76.29;101577.91;21059231;28;20491;-73
2023/06/16 09:13:07;;;;;;;3.22;3.00;;;;;;;20.71;76.15;101580.34;21058084;28;20044;-73
2023/06/16 09:23:10;;;;;;;3.63;3.30;;;;;;;20.75;76.57;101577.34;21040167;28;20052;-73
2023/06/16 09:33:13;;;;;;;3.20;2.90;;;;;;;20.76;76.15;101582.63;21074569;28;20048;-73
2023/06/16 09:43:15;;;;;;;2.65;2.45;;;;;;;20.77;75.53;101573.53;21058264;28;20056;-73
2023/06/16 09:53:19;;;;;;;3.38;3.08;;;;;;;20.78;75.99;101567.13;21072518;28;20097;-73
2023/06/16 10:03:20;;;;;;;3.10;2.87;;;;;;;20.81;76.05;101563.31;21072499;28;20467;-73
2023/06/16 10:13:22;;;;;;;3.33;3.03;;;;;;;20.81;76.29;101566.03;21071718;28;20058;-73
2023/06/16 10:23:24;;;;;;;3.40;3.10;;;;;;;20.82;76.17;101548.81;21051714;28;20530;-73
2023/06/16 10:33:28;;;;;;;3.38;3.08;;;;;;;20.84;75.88;101546.81;21051651;28;20453;-73
2023/06/16 10:43:30;;;;;;;3.05;2.80;;;;;;;20.85;75.92;101537.69;21047601;28;20189;-73
2023/06/16 10:53:37;;;;;;;3.03;2.72;;;;;;;20.85;74.59;101538.53;21049931;28;20506;-73
2023/06/16 11:03:43;;;;;;;3.30;3.00;;;;;;;20.86;73.07;101544.81;21068308;28;20131;-73
2023/06/16 11:13:46;;;;;;;3.00;2.67;;;;;;;20.87;72.16;101524.88;21049662;28;20058;-73
2023/06/16 11:23:48;;;;;;;2.88;2.67;;;;;;;20.88;72.56;101532.00;21066249;28;20043;-73
2023/06/16 11:33:53;;;;;;;3.20;2.70;;;;;;;20.88;71.32;101532.00;21027873;28;20055;-73
2023/06/16 11:43:55;;;;;;;2.50;2.30;;;;;;;20.89;71.31;101533.72;21057396;28;20053;-73
2023/06/16 11:53:58;;;;;;;3.20;2.90;;;;;;;20.91;71.30;101520.88;21066246;28;20059;-73
2023/06/16 12:04:01;;;;;;;3.00;2.67;;;;;;;20.91;70.94;101520.88;21065670;28;20079;-73
2023/06/16 12:14:07;;;;;;;2.83;2.60;;;;;;;20.91;70.74;101518.19;21063218;28;20446;-73
2023/06/16 12:24:09;;;;;;;2.90;2.70;;;;;;;20.90;70.02;101516.47;21061586;28;20109;-73
2023/06/16 12:34:11;;;;;;;3.20;2.50;;;;;;;20.89;70.05;101512.06;21066103;28;20090;-73
2023/06/16 12:44:12;;;;;;;2.42;2.22;;;;;;;20.90;69.26;101512.91;21055408;28;20531;-73
2023/06/16 12:54:17;;;;;;;2.70;2.50;;;;;;;20.89;68.54;101512.06;21078344;28;20411;-73
2023/06/16 13:04:19;;;;;;;2.30;2.10;;;;;;;20.89;69.09;101501.22;21076576;28;20044;-73
2023/06/16 13:14:21;;;;;;;2.97;2.67;;;;;;;20.88;67.93;101494.09;21029870;28;20051;-73
2023/06/16 13:24:24;;;;;;;2.70;2.50;;;;;;;20.90;69.16;101486.69;20911836;28;20573;-73
2023/06/16 13:34:25;;;;;;;1.80;1.70;;;;;;;20.91;64.71;101482.13;20941137;28;20056;-74
2023/06/16 13:44:27;;;;;;;1.60;1.50;;;;;;;20.96;64.28;101474.44;20962894;28;20041;-73
2023/06/16 13:54:28;;;;;;;1.70;1.60;;;;;;;20.99;63.51;101469.59;20948518;28;20051;-73
2023/06/16 14:04:30;;;;;;;2.67;2.20;;;;;;;21.02;63.24;101473.88;20943058;28;20412;-73
2023/06/16 14:14:32;;;;;;;2.50;1.95;;;;;;;21.08;64.00;101475.16;20920332;28;20385;-72
2023/06/16 14:24:33;;;;;;;2.35;2.15;;;;;;;21.10;65.26;101465.03;20943818;28;20043;-68
2023/06/16 14:34:35;;;;;;;2.45;2.10;;;;;;;21.11;64.79;101455.91;20942577;28;20040;-69
2023/06/16 14:44:37;;;;;;;5.93;4.82;;;;;;;21.22;67.45;101450.34;20926387;28;20073;-69
2023/06/16 14:54:38;;;;;;;6.68;3.80;;;;;;;21.26;67.82;101449.06;20914627;28;20041;-71
2023/06/16 15:04:40;;;;;;;5.57;3.42;;;;;;;21.34;69.87;101456.44;20922410;28;20083;-69
2023/06/16 15:14:42;;;;;;;5.82;3.80;;;;;;;21.39;71.00;101454.13;20912807;28;20045;-71
2023/06/16 15:24:43;;;;;;;7.13;3.97;;;;;;;21.44;70.12;101442.88;20920328;28;20086;-74
2023/06/16 15:34:45;;;;;;;10.02;4.28;;;;;;;21.53;70.45;101444.69;20917597;28;20052;-79
2023/06/16 15:44:46;;;;;;;16.48;8.70;;;;;;;21.62;70.64;101428.56;20896817;28;20052;-78
2023/06/16 15:54:50;;;;;;;18.27;9.23;;;;;;;21.71;71.18;101422.31;20910460;28;20123;-78
2023/06/16 16:04:51;;;;;;;14.75;7.47;;;;;;;21.75;70.86;101423.72;20931314;28;20045;-77
2023/06/16 16:14:53;;;;;;;12.77;6.28;;;;;;;21.71;68.42;101409.59;20911166;28;20056;-77
2023/06/16 16:24:54;;;;;;;8.85;5.28;;;;;;;21.67;66.28;101401.94;20929898;28;20041;-75
2023/06/16 16:34:56;;;;;;;9.98;5.18;;;;;;;21.57;65.14;101389.22;20923972;28;20082;-79
2023/06/16 16:44:58;;;;;;;9.95;4.70;;;;;;;21.55;64.99;101399.34;20909991;28;20083;-67
2023/06/16 16:54:59;;;;;;;7.78;4.32;;;;;;;21.51;64.05;101397.09;20938716;28;20448;-67
2023/06/16 17:05:02;;;;;;;8.25;3.83;;;;;;;21.50;63.70;101398.94;20929678;28;20045;-67
2023/06/16 17:15:04;;;;;;;6.50;3.65;;;;;;;21.47;63.45;101401.94;20916399;28;20060;-67
2023/06/16 17:25:07;;;;;;;6.65;3.30;;;;;;;21.46;62.60;101405.66;20947923;28;20084;-68
2023/06/16 17:35:08;;;;;;;5.50;3.30;;;;;;;21.42;61.92;101396.13;21018737;28;20051;-66
2023/06/16 17:45:10;;;;;;;5.82;3.15;;;;;;;21.40;62.96;101396.25;20928883;28;20055;-65
2023/06/16 17:55:12;;;;;;;4.82;3.13;;;;;;;21.33;62.38;101384.31;20952930;28;20584;-65
2023/06/16 18:05:14;;;;;;;3.78;2.90;;;;;;;21.34;61.83;101396.03;20961549;28;20058;-65
2023/06/16 18:15:16;;;;;;;4.72;2.97;;;;;;;21.29;61.05;101397.31;20977906;28;20079;-65
2023/06/16 18:25:18;;;;;;;3.13;2.55;;;;;;;21.27;60.59;101393.91;20995435;28;20052;-65
2023/06/16 18:35:19;;;;;;;4.40;3.15;;;;;;;21.25;60.38;101393.19;21031800;28;20139;-65
2023/06/16 18:45:22;;;;;;;4.78;3.28;;;;;;;21.22;60.07;101385.38;21035015;28;20089;-65
2023/06/16 18:55:23;;;;;;;4.43;3.25;;;;;;;21.19;60.02;101388.34;21068494;28;20424;-65
2023/06/16 19:05:25;;;;;;;4.60;3.55;;;;;;;21.16;60.11;101380.50;21050994;28;20052;-65
2023/06/16 19:15:29;;;;;;;3.13;2.80;;;;;;;21.15;61.46;101386.94;21067000;28;20085;-65
2023/06/16 19:25:30;;;;;;;4.10;3.13;;;;;;;21.16;62.16;101388.63;21051051;28;20063;-65
2023/06/16 19:35:33;;;;;;;4.03;3.25;;;;;;;21.11;63.81;101409.88;21042853;28;20084;-65
2023/06/16 19:45:35;;;;;;;3.60;3.03;;;;;;;21.15;63.41;101420.28;20968007;28;20079;-65
2023/06/16 19:55:36;;;;;;;5.25;3.30;;;;;;;21.14;64.24;101413.16;20927179;28;20475;-65
2023/06/16 20:05:50;;;;;;;4.10;3.38;;;;;;;21.13;63.82;101421.41;20951388;28;20040;-65
2023/06/16 20:15:52;;;;;;;3.97;3.50;;;;;;;21.11;63.56;101429.69;20965814;28;20079;-65
2023/06/16 20:25:53;;;;;;;3.92;3.38;;;;;;;21.09;63.01;101431.69;20951759;28;21923;-65
2023/06/16 20:35:55;;;;;;;4.90;3.28;;;;;;;21.06;62.73;101423.00;20972818;28;20045;-65
2023/06/16 20:45:58;;;;;;;3.78;3.20;;;;;;;21.04;62.28;101406.06;20979628;28;20052;-65
2023/06/16 20:55:59;;;;;;;4.53;3.20;;;;;;;21.04;62.40;101403.34;20957761;28;20048;-65
2023/06/16 21:06:01;;;;;;;5.25;3.63;;;;;;;21.00;61.87;101400.94;20966578;28;20049;-65
2023/06/16 21:16:04;;;;;;;4.30;3.60;;;;;;;20.98;61.29;101397.50;20945087;28;20463;-65
2023/06/16 21:26:05;;;;;;;3.72;3.05;;;;;;;20.95;61.16;101394.22;20934184;28;20484;-65
2023/06/16 21:36:07;;;;;;;3.70;2.92;;;;;;;20.92;60.90;101392.69;20958422;28;20049;-65
2023/06/16 21:46:09;;;;;;;3.53;3.22;;;;;;;20.88;60.98;101380.44;20963435;28;20098;-65
2023/06/16 21:56:12;;;;;;;3.40;3.10;;;;;;;20.88;61.00;101387.69;20970495;28;20511;-65
2023/06/16 22:06:13;;;;;;;3.67;3.38;;;;;;;20.84;61.08;101373.63;20979982;28;20726;-65
2023/06/16 22:16:15;;;;;;;3.42;3.13;;;;;;;20.82;61.25;101375.63;20921147;28;20100;-65
2023/06/16 22:26:19;;;;;;;3.85;3.30;;;;;;;20.82;61.63;101378.31;20964688;28;20048;-65
2023/06/16 22:36:21;;;;;;;3.47;3.15;;;;;;;20.80;61.76;101377.63;20916885;28;20198;-65
2023/06/16 22:46:22;;;;;;;3.33;3.03;;;;;;;20.78;61.86;101357.94;20952887;28;20055;-65
2023/06/16 22:56:24;;;;;;;3.53;3.20;;;;;;;20.78;62.14;101352.53;20946774;28;20052;-65
2023/06/16 23:06:25;;;;;;;3.70;3.40;;;;;;;20.76;62.33;101349.06;20937709;28;20053;-65
2023/06/16 23:16:28;;;;;;;3.95;3.03;;;;;;;20.75;62.85;101348.25;20984096;28;20550;-65
2023/06/16 23:26:32;;;;;;;3.25;2.95;;;;;;;20.73;63.00;101351.06;20954072;28;20045;-65
2023/06/16 23:36:34;;;;;;;3.80;3.10;;;;;;;20.71;63.17;101344.94;20906787;28;20460;-65
2023/06/16 23:46:36;;;;;;;3.38;3.00;;;;;;;20.70;63.29;101337.84;20941847;28;20405;-65
2023/06/16 23:56:37;;;;;;;3.65;2.90;;;;;;;20.67;63.39;101342.69;20930330;28;20050;-65
